Time;durP1;ratioP1;P1;durP2;ratioP2;P2;SDS_P1;SDS_P2;PMS_P1;PMS_P2;Temp;Humidity;BMP_temperature;BMP_pressure;BME280_temperature;BME280_humidity;BME280_pressure;Samples;Min_cycle;Max_cycle;Signal;HPM_P1;HPM_P2
2020/12/09 00:01:39;;;;;;;55.67;22.67;;;1.60;99.90;;;;;;5048718;28;20205;-68
2020/12/09 00:04:07;;;;;;;57.37;21.80;;;1.70;99.90;;;;;;5021726;28;20203;-68
2020/12/09 00:06:37;;;;;;;67.57;24.30;;;1.70;99.90;;;;;;5029616;28;20745;-67
2020/12/09 00:09:06;;;;;;;55.33;22.03;;;1.70;99.90;;;;;;4990423;28;20234;-68
2020/12/09 00:11:32;;;;;;;57.53;22.70;;;1.70;99.90;;;;;;4987574;28;20307;-68
2020/12/09 00:13:59;;;;;;;53.53;21.53;;;1.80;99.90;;;;;;4970355;28;20224;-68
2020/12/09 00:16:25;;;;;;;61.23;23.40;;;1.80;99.90;;;;;;4984309;28;20208;-68
2020/12/09 00:18:52;;;;;;;62.27;23.67;;;1.80;99.90;;;;;;4970698;28;20247;-68
2020/12/09 00:21:20;;;;;;;57.73;24.53;;;1.80;99.90;;;;;;4989169;28;20226;-68
2020/12/09 00:23:47;;;;;;;58.10;23.90;;;1.80;99.90;;;;;;4954645;28;20296;-69
2020/12/09 00:26:17;;;;;;;55.53;22.30;;;1.80;99.90;;;;;;4958209;28;20303;-68
2020/12/09 00:28:43;;;;;;;57.90;22.47;;;1.80;99.90;;;;;;4960843;28;20292;-68
2020/12/09 00:31:13;;;;;;;60.00;24.47;;;1.80;99.90;;;;;;4953309;28;20295;-68
2020/12/09 00:33:40;;;;;;;65.90;26.17;;;2.70;99.90;;;;;;4939102;29;20210;-68
2020/12/09 00:36:06;;;;;;;67.87;25.10;;;1.80;99.90;;;;;;4960810;28;20283;-69
2020/12/09 00:38:33;;;;;;;66.73;25.13;;;1.80;99.90;;;;;;4968360;28;20298;-68
2020/12/09 00:41:00;;;;;;;61.50;24.07;;;1.80;99.90;;;;;;4978774;28;20277;-68
2020/12/09 00:43:27;;;;;;;64.70;26.73;;;1.80;99.90;;;;;;4976511;28;20307;-68
2020/12/09 00:45:53;;;;;;;68.30;26.43;;;1.80;99.90;;;;;;4983494;28;20214;-67
2020/12/09 00:48:20;;;;;;;67.77;27.33;;;1.80;99.90;;;;;;4998436;28;20208;-67
2020/12/09 00:50:46;;;;;;;63.80;26.63;;;1.80;99.90;;;;;;4992915;28;20227;-67
2020/12/09 00:53:13;;;;;;;56.77;23.33;;;1.80;99.90;;;;;;5010972;28;20206;-68
2020/12/09 00:55:40;;;;;;;56.23;23.20;;;1.80;99.90;;;;;;5004728;28;20230;-68
2020/12/09 00:58:07;;;;;;;54.60;22.97;;;1.80;99.90;;;;;;4995315;28;20258;-68
2020/12/09 01:00:34;;;;;;;63.17;24.57;;;1.80;99.90;;;;;;5005691;28;20234;-66
2020/12/09 01:03:12;;;;;;;67.17;26.63;;;1.90;99.90;;;;;;4992369;28;20559;-66
2020/12/09 01:05:38;;;;;;;59.60;24.87;;;1.80;99.90;;;;;;4962183;28;20295;-66
2020/12/09 01:08:05;;;;;;;60.47;25.63;;;1.80;99.90;;;;;;4971556;28;20754;-66
2020/12/09 01:10:31;;;;;;;59.07;23.90;;;1.80;99.90;;;;;;4960312;28;20288;-67
2020/12/09 01:12:58;;;;;;;61.87;26.17;;;1.80;99.90;;;;;;4968254;28;20214;-67
2020/12/09 01:15:25;;;;;;;68.80;28.53;;;1.80;99.90;;;;;;4971724;28;20267;-67
2020/12/09 01:17:52;;;;;;;65.93;26.77;;;1.70;99.90;;;;;;4952883;29;20201;-66
2020/12/09 01:20:18;;;;;;;66.23;27.80;;;1.70;99.90;;;;;;4952494;29;20213;-66
2020/12/09 01:22:44;;;;;;;61.70;26.90;;;1.70;99.90;;;;;;4951926;29;20236;-66
2020/12/09 01:25:11;;;;;;;63.53;27.07;;;2.00;99.90;;;;;;4952867;29;20201;-66
2020/12/09 01:27:38;;;;;;;70.57;28.20;;;1.60;99.90;;;;;;4981790;28;20302;-65
2020/12/09 01:30:05;;;;;;;56.03;23.73;;;1.60;99.90;;;;;;4982276;28;20203;-68
2020/12/09 01:32:32;;;;;;;61.27;25.30;;;1.60;99.90;;;;;;4955055;28;20711;-66
2020/12/09 01:34:58;;;;;;;63.67;25.77;;;1.60;99.90;;;;;;4942253;28;20272;-66
2020/12/09 01:37:25;;;;;;;67.00;25.90;;;1.60;99.90;;;;;;4931671;29;20206;-66
2020/12/09 01:39:52;;;;;;;59.30;22.97;;;1.50;99.90;;;;;;4934263;29;20281;-68
2020/12/09 01:42:18;;;;;;;56.07;24.03;;;1.50;99.90;;;;;;4933024;29;20209;-68
2020/12/09 01:44:45;;;;;;;51.47;22.00;;;1.50;99.90;;;;;;4948928;29;20209;-68
2020/12/09 01:47:13;;;;;;;54.37;21.23;;;1.50;99.90;;;;;;4952718;28;20215;-67
2020/12/09 01:49:39;;;;;;;50.20;21.63;;;1.40;99.90;;;;;;4953302;29;20232;-68
2020/12/09 01:52:06;;;;;;;51.30;22.13;;;1.50;99.90;;;;;;4951406;29;20223;-68
2020/12/09 01:54:33;;;;;;;49.90;22.23;;;1.50;99.90;;;;;;4952855;29;20627;-68
2020/12/09 01:57:07;;;;;;;50.30;20.93;;;1.50;99.90;;;;;;4941779;29;20297;-68
2020/12/09 01:59:34;;;;;;;50.17;21.87;;;1.40;99.90;;;;;;4951847;28;20229;-66
2020/12/09 02:02:01;;;;;;;52.67;21.10;;;1.40;99.90;;;;;;5003706;28;20499;-68
2020/12/09 02:04:30;;;;;;;55.17;22.00;;;1.30;99.90;;;;;;5062408;28;20201;-65
2020/12/09 02:06:57;;;;;;;51.67;21.70;;;1.30;99.90;;;;;;5068770;28;20209;-66
2020/12/09 02:09:24;;;;;;;60.67;25.50;;;1.30;99.90;;;;;;5070980;28;20205;-66
2020/12/09 02:11:51;;;;;;;56.67;24.37;;;1.30;99.90;;;;;;5070447;28;20205;-66
2020/12/09 02:14:18;;;;;;;56.23;24.40;;;2.00;99.90;;;;;;5069804;28;20302;-66
2020/12/09 02:16:48;;;;;;;53.20;22.97;;;1.20;99.90;;;;;;5030532;28;20229;-65
2020/12/09 02:19:15;;;;;;;46.83;21.47;;;1.20;99.90;;;;;;5030756;28;20238;-65
2020/12/09 02:21:43;;;;;;;50.10;21.70;;;1.20;99.90;;;;;;5030075;28;20269;-65
2020/12/09 02:24:09;;;;;;;48.17;21.63;;;1.20;99.90;;;;;;5030564;28;20198;-68
2020/12/09 02:26:41;;;;;;;52.80;22.83;;;1.20;99.90;;;;;;5030395;28;20210;-67
2020/12/09 02:29:09;;;;;;;63.87;24.87;;;1.10;99.90;;;;;;5025549;28;20222;-65
2020/12/09 02:31:35;;;;;;;53.43;22.50;;;1.10;99.90;;;;;;5029194;28;20218;-65
2020/12/09 02:34:02;;;;;;;47.10;21.50;;;1.10;99.90;;;;;;5020210;28;20202;-66
2020/12/09 02:36:29;;;;;;;51.73;22.57;;;1.00;99.90;;;;;;5030707;28;20214;-67
2020/12/09 02:38:57;;;;;;;55.43;23.57;;;0.90;99.90;;;;;;5028978;28;20214;-66
2020/12/09 02:41:24;;;;;;;54.17;21.87;;;1.00;99.90;;;;;;5050035;28;20714;-66
2020/12/09 02:43:50;;;;;;;49.97;22.67;;;1.00;99.90;;;;;;5051284;28;20303;-66
2020/12/09 02:46:17;;;;;;;53.67;24.50;;;1.00;99.90;;;;;;5049423;28;20233;-66
2020/12/09 02:48:44;;;;;;;59.47;24.20;;;1.00;99.90;;;;;;5063764;28;20223;-65
2020/12/09 02:51:10;;;;;;;57.07;24.93;;;1.00;99.90;;;;;;5061237;28;20213;-65
2020/12/09 02:53:37;;;;;;;59.93;25.73;;;1.00;99.90;;;;;;5047533;28;20255;-66
2020/12/09 02:56:04;;;;;;;56.57;23.23;;;0.90;99.90;;;;;;5049615;28;20201;-66
2020/12/09 02:58:31;;;;;;;58.43;24.67;;;1.00;99.90;;;;;;5049013;28;20284;-66
2020/12/09 03:00:57;;;;;;;43.03;20.33;;;0.90;99.90;;;;;;5049426;28;20228;-66
2020/12/09 03:03:24;;;;;;;45.57;19.10;;;1.00;99.90;;;;;;5009658;28;20221;-66
2020/12/09 03:05:51;;;;;;;37.43;17.90;;;1.00;99.90;;;;;;5008335;28;20230;-66
2020/12/09 03:08:17;;;;;;;40.63;16.97;;;1.00;99.90;;;;;;5008676;28;20211;-65
2020/12/09 03:10:44;;;;;;;39.77;17.83;;;1.00;99.90;;;;;;5009127;28;20257;-65
2020/12/09 03:13:11;;;;;;;40.40;17.63;;;0.90;99.90;;;;;;5009831;28;20210;-66
2020/12/09 03:15:38;;;;;;;37.47;17.33;;;0.90;99.90;;;;;;5009339;28;20648;-66
2020/12/09 03:18:07;;;;;;;39.77;16.63;;;0.90;99.90;;;;;;5009737;28;20269;-66
2020/12/09 03:20:33;;;;;;;39.37;16.73;;;0.80;99.90;;;;;;5009681;28;20561;-66
2020/12/09 03:23:00;;;;;;;37.30;16.07;;;0.80;99.90;;;;;;5008013;28;20215;-66
2020/12/09 03:25:27;;;;;;;43.37;17.10;;;0.80;99.90;;;;;;5009839;28;20254;-66
2020/12/09 03:27:53;;;;;;;37.73;16.40;;;0.90;99.90;;;;;;4988775;28;20204;-66
2020/12/09 03:30:21;;;;;;;37.10;16.50;;;0.90;99.90;;;;;;4986207;28;20212;-66
2020/12/09 03:32:47;;;;;;;37.13;15.97;;;0.90;99.90;;;;;;4979363;28;20213;-66
2020/12/09 03:35:14;;;;;;;39.97;15.63;;;1.00;99.90;;;;;;5020094;28;20861;-66
2020/12/09 03:37:40;;;;;;;40.83;16.60;;;1.20;99.90;;;;;;5026834;28;20260;-66
2020/12/09 03:40:07;;;;;;;42.50;16.17;;;1.10;99.90;;;;;;5029421;28;20234;-66
2020/12/09 03:42:33;;;;;;;48.70;17.77;;;1.10;99.90;;;;;;5008929;28;20577;-66
2020/12/09 03:45:00;;;;;;;35.87;15.07;;;1.20;99.90;;;;;;5028320;28;20430;-66
2020/12/09 03:47:27;;;;;;;35.83;15.47;;;1.20;99.90;;;;;;5040895;28;20252;-66
2020/12/09 03:49:54;;;;;;;37.93;15.13;;;1.20;99.90;;;;;;5009120;28;20195;-66
2020/12/09 03:52:22;;;;;;;44.33;16.70;;;1.20;99.90;;;;;;4987182;28;20239;-66
2020/12/09 03:54:49;;;;;;;34.90;16.20;;;1.20;99.90;;;;;;4962831;28;20202;-66
2020/12/09 03:57:15;;;;;;;42.07;17.07;;;1.20;99.90;;;;;;4949906;29;20206;-66
2020/12/09 03:59:42;;;;;;;46.50;17.67;;;1.20;99.90;;;;;;4950899;29;20224;-66
2020/12/09 04:02:08;;;;;;;38.13;17.63;;;1.20;99.90;;;;;;4950797;28;20556;-66
2020/12/09 04:04:36;;;;;;;38.43;16.63;;;1.20;99.90;;;;;;4950646;28;20750;-66
2020/12/09 04:07:02;;;;;;;45.50;16.67;;;1.20;99.90;;;;;;4940002;29;20225;-66
2020/12/09 04:09:30;;;;;;;39.50;17.10;;;1.20;99.90;;;;;;4940975;29;20224;-66
2020/12/09 04:11:57;;;;;;;33.33;14.63;;;1.20;99.90;;;;;;4950107;29;20201;-65
2020/12/09 04:14:23;;;;;;;33.73;15.57;;;1.20;99.90;;;;;;4958591;28;20263;-67
2020/12/09 04:16:50;;;;;;;38.60;15.50;;;1.10;99.90;;;;;;4952658;28;20698;-66
2020/12/09 04:19:16;;;;;;;33.80;14.93;;;1.10;99.90;;;;;;4943437;29;20313;-66
2020/12/09 04:21:44;;;;;;;36.43;14.87;;;0.90;99.90;;;;;;4949226;28;20212;-66
2020/12/09 04:24:10;;;;;;;34.00;15.27;;;1.10;99.90;;;;;;4946492;29;20201;-67
2020/12/09 04:26:37;;;;;;;32.57;14.40;;;1.10;99.90;;;;;;4994554;28;20273;-67
2020/12/09 04:29:04;;;;;;;31.30;13.90;;;1.00;99.90;;;;;;5009658;28;20199;-67
2020/12/09 04:31:30;;;;;;;34.10;15.40;;;1.00;99.90;;;;;;5008345;28;20239;-67
2020/12/09 04:34:00;;;;;;;33.63;15.03;;;1.10;99.90;;;;;;4987505;28;20199;-67
2020/12/09 04:36:27;;;;;;;44.07;17.17;;;1.00;99.90;;;;;;4988378;28;20678;-67
2020/12/09 04:38:56;;;;;;;40.23;16.80;;;1.10;99.90;;;;;;4975548;28;20595;-67
2020/12/09 04:41:23;;;;;;;42.87;15.93;;;1.00;99.90;;;;;;4979491;28;20218;-67
2020/12/09 04:43:50;;;;;;;39.83;15.80;;;1.00;99.90;;;;;;4987098;28;20215;-67
2020/12/09 04:46:16;;;;;;;33.60;14.03;;;1.00;99.90;;;;;;4988059;28;20200;-66
2020/12/09 04:48:57;;;;;;;30.03;12.03;;;1.00;99.90;;;;;;4987969;28;20204;-67
2020/12/09 04:51:59;;;;;;;33.17;13.93;;;1.10;99.90;;;;;;5008732;28;20205;-66
2020/12/09 04:54:36;;;;;;;35.23;14.93;;;1.10;99.90;;;;;;5001406;28;20212;-66
2020/12/09 04:57:09;;;;;;;39.33;15.10;;;1.10;99.90;;;;;;4993738;28;20207;-66
2020/12/09 04:59:40;;;;;;;32.47;14.33;;;1.10;99.90;;;;;;4999194;28;20231;-67
2020/12/09 05:02:08;;;;;;;41.73;15.33;;;1.10;99.90;;;;;;5003554;28;20265;-67
2020/12/09 05:04:36;;;;;;;34.77;16.30;;;1.10;99.90;;;;;;5008649;28;20234;-67
2020/12/09 05:07:08;;;;;;;41.00;15.23;;;1.10;99.90;;;;;;5024017;28;20264;-67
2020/12/09 05:09:44;;;;;;;35.17;14.43;;;1.00;99.90;;;;;;5027812;28;20729;-67
2020/12/09 05:12:15;;;;;;;35.00;16.17;;;1.20;99.90;;;;;;5019115;28;20215;-67
2020/12/09 05:14:47;;;;;;;41.17;16.37;;;1.20;99.90;;;;;;5045432;28;20673;-67
2020/12/09 05:17:17;;;;;;;33.80;15.50;;;1.20;99.90;;;;;;5061802;28;20213;-66
2020/12/09 05:19:44;;;;;;;42.87;17.87;;;1.10;99.90;;;;;;5062658;28;20728;-66
2020/12/09 05:22:15;;;;;;;37.73;16.00;;;1.10;99.90;;;;;;5022385;28;20303;-67
2020/12/09 05:24:43;;;;;;;34.77;15.90;;;1.10;99.90;;;;;;4982067;28;20212;-66
2020/12/09 05:27:10;;;;;;;37.77;16.67;;;1.10;99.90;;;;;;4977593;28;20212;-66
2020/12/09 05:29:44;;;;;;;46.47;18.30;;;1.20;99.90;;;;;;4988872;28;20634;-66
2020/12/09 05:32:11;;;;;;;47.00;20.00;;;1.20;99.90;;;;;;4987762;28;20199;-68
2020/12/09 05:34:37;;;;;;;43.33;20.00;;;1.10;99.90;;;;;;4990525;28;20273;-67
2020/12/09 05:37:06;;;;;;;40.87;18.17;;;1.20;99.90;;;;;;4990586;28;20234;-68
2020/12/09 05:39:33;;;;;;;40.63;17.27;;;1.10;99.90;;;;;;4992360;28;20227;-68
2020/12/09 05:42:13;;;;;;;42.60;17.63;;;1.10;99.90;;;;;;4990648;28;20251;-68
2020/12/09 05:44:42;;;;;;;34.90;15.47;;;1.10;99.90;;;;;;4983323;28;20250;-67
2020/12/09 05:47:08;;;;;;;31.00;14.83;;;1.10;99.90;;;;;;4991199;28;20239;-67
2020/12/09 05:49:37;;;;;;;35.23;14.57;;;1.20;99.90;;;;;;4992324;28;20551;-68
2020/12/09 05:52:05;;;;;;;38.20;17.23;;;1.30;99.90;;;;;;4989489;28;20219;-67
2020/12/09 05:54:32;;;;;;;47.93;20.27;;;1.30;99.90;;;;;;4953278;28;20324;-67
2020/12/09 05:57:02;;;;;;;45.63;18.93;;;1.30;99.90;;;;;;5029708;28;20225;-67
2020/12/09 05:59:36;;;;;;;47.37;19.50;;;1.30;99.90;;;;;;5028445;28;20692;-68
2020/12/09 06:02:15;;;;;;;47.63;19.67;;;1.30;99.90;;;;;;5029619;28;20612;-67
2020/12/09 06:04:46;;;;;;;44.40;17.77;;;1.30;99.90;;;;;;5030897;28;20217;-67
2020/12/09 06:07:14;;;;;;;41.80;18.70;;;1.40;99.90;;;;;;5021617;28;20206;-67
2020/12/09 06:09:41;;;;;;;34.47;15.93;;;1.30;99.90;;;;;;5030783;28;20362;-66
2020/12/09 06:12:07;;;;;;;36.87;15.83;;;1.50;99.90;;;;;;5027391;28;20210;-66
2020/12/09 06:14:35;;;;;;;36.83;15.37;;;1.50;99.90;;;;;;5012816;28;20234;-67
2020/12/09 06:17:01;;;;;;;46.43;18.07;;;1.60;99.90;;;;;;4999704;28;20258;-66
2020/12/09 06:19:28;;;;;;;56.30;20.30;;;1.60;99.90;;;;;;5002563;28;20226;-66
2020/12/09 06:21:55;;;;;;;50.70;18.87;;;1.60;99.90;;;;;;5009343;28;20257;-66
2020/12/09 06:24:22;;;;;;;47.87;19.93;;;1.50;99.90;;;;;;5010505;28;20199;-66
2020/12/09 06:26:49;;;;;;;44.97;19.80;;;1.50;99.90;;;;;;5010032;28;20210;-67
2020/12/09 06:29:22;;;;;;;44.13;19.07;;;1.50;99.90;;;;;;5005139;28;20283;-66
2020/12/09 06:31:59;;;;;;;36.47;16.30;;;1.50;99.90;;;;;;5027773;28;20756;-66
2020/12/09 06:34:26;;;;;;;49.20;19.57;;;1.40;99.90;;;;;;5030010;28;20278;-67
2020/12/09 06:37:12;;;;;;;41.93;17.30;;;1.40;99.90;;;;;;5029155;28;20225;-67
2020/12/09 06:39:39;;;;;;;44.10;16.60;;;1.40;99.90;;;;;;5029792;28;20311;-66
2020/12/09 06:42:10;;;;;;;43.23;17.40;;;1.40;99.90;;;;;;5029722;28;20230;-67
2020/12/09 06:44:50;;;;;;;52.13;20.33;;;1.40;99.90;;;;;;5029960;28;20237;-66
2020/12/09 06:47:18;;;;;;;51.53;21.40;;;1.40;99.90;;;;;;5017415;28;20207;-66
2020/12/09 06:49:46;;;;;;;50.13;21.07;;;1.40;99.90;;;;;;5010620;28;20211;-67
2020/12/09 06:52:45;;;;;;;45.03;18.90;;;1.30;99.90;;;;;;5010353;28;20594;-66
2020/12/09 06:55:20;;;;;;;46.67;20.13;;;1.30;99.90;;;;;;5047193;28;20201;-67
2020/12/09 06:57:46;;;;;;;47.47;20.13;;;1.30;99.90;;;;;;5069162;28;20292;-68
2020/12/09 07:00:23;;;;;;;45.47;19.83;;;1.20;99.90;;;;;;5069912;28;20217;-67
2020/12/09 07:02:54;;;;;;;40.10;18.77;;;1.20;99.90;;;;;;5049733;28;20664;-67
2020/12/09 07:05:27;;;;;;;53.13;22.60;;;1.20;99.90;;;;;;5049719;28;20202;-66
2020/12/09 07:08:01;;;;;;;54.17;21.87;;;1.20;99.90;;;;;;5068595;28;20213;-66
2020/12/09 07:10:30;;;;;;;63.43;24.23;;;1.20;99.90;;;;;;5069768;28;20201;-68
2020/12/09 07:13:08;;;;;;;55.30;22.37;;;1.20;99.90;;;;;;5068860;28;20208;-67
2020/12/09 07:15:35;;;;;;;57.07;23.67;;;1.10;99.90;;;;;;5068755;28;20271;-68
2020/12/09 07:18:04;;;;;;;60.77;22.43;;;1.20;99.90;;;;;;5029569;28;20202;-68
2020/12/09 07:20:30;;;;;;;51.13;20.23;;;1.10;99.90;;;;;;5029527;28;20257;-67
2020/12/09 07:22:57;;;;;;;53.97;21.37;;;1.10;99.90;;;;;;5047677;28;20229;-67
2020/12/09 07:25:24;;;;;;;54.03;21.73;;;1.00;99.90;;;;;;5018428;28;20647;-67
2020/12/09 07:27:51;;;;;;;51.00;20.93;;;1.00;99.90;;;;;;5015996;28;20210;-67
2020/12/09 07:30:19;;;;;;;51.33;20.90;;;1.00;99.90;;;;;;5025431;28;20289;-67
2020/12/09 07:32:48;;;;;;;51.77;21.10;;;1.00;99.90;;;;;;5035814;28;20206;-67
2020/12/09 07:35:17;;;;;;;55.47;23.00;;;1.10;99.90;;;;;;5014695;28;20225;-67
2020/12/09 07:37:46;;;;;;;52.20;21.20;;;1.00;99.90;;;;;;5016749;28;20199;-67
2020/12/09 07:40:17;;;;;;;49.37;19.47;;;1.00;99.90;;;;;;5002454;28;20423;-67
2020/12/09 07:42:44;;;;;;;52.90;22.03;;;1.00;99.90;;;;;;4985624;28;20250;-66
2020/12/09 07:45:13;;;;;;;46.90;19.83;;;1.00;99.90;;;;;;4987594;28;20207;-67
2020/12/09 07:47:39;;;;;;;50.80;20.70;;;1.10;99.90;;;;;;4984314;28;20278;-67
2020/12/09 07:50:07;;;;;;;54.17;21.40;;;1.00;99.90;;;;;;4999757;28;20207;-67
2020/12/09 07:52:41;;;;;;;48.57;21.03;;;1.10;99.90;;;;;;4986772;28;20200;-68
2020/12/09 07:55:14;;;;;;;45.20;19.67;;;1.00;99.90;;;;;;4969472;28;20212;-67
2020/12/09 07:57:41;;;;;;;45.90;20.73;;;1.00;99.90;;;;;;4987469;28;20216;-68
2020/12/09 08:00:10;;;;;;;53.27;21.10;;;1.00;99.90;;;;;;4949937;29;20316;-68
2020/12/09 08:02:41;;;;;;;51.83;20.93;;;1.00;99.90;;;;;;4949505;29;20208;-67
2020/12/09 08:05:14;;;;;;;44.20;19.67;;;0.90;99.90;;;;;;4949967;29;20201;-67
2020/12/09 08:07:56;;;;;;;50.30;18.67;;;1.00;99.90;;;;;;4947644;29;20216;-67
2020/12/09 08:10:28;;;;;;;37.30;16.87;;;1.00;99.90;;;;;;4946170;29;20296;-66
2020/12/09 08:13:03;;;;;;;37.63;18.03;;;1.10;99.90;;;;;;4949777;29;20209;-68
2020/12/09 08:15:30;;;;;;;40.27;17.57;;;0.60;99.90;;;;;;4910898;29;20292;-68
2020/12/09 08:17:58;;;;;;;33.10;14.77;;;1.20;99.90;;;;;;4888529;29;20278;-67
2020/12/09 08:20:25;;;;;;;39.33;15.80;;;1.20;99.90;;;;;;4892951;29;20242;-66
2020/12/09 08:22:55;;;;;;;29.17;13.87;;;1.30;99.90;;;;;;4891878;29;20353;-67
2020/12/09 08:25:23;;;;;;;30.10;13.17;;;1.30;99.90;;;;;;4870711;29;20223;-67
2020/12/09 08:27:52;;;;;;;37.57;16.10;;;1.40;99.90;;;;;;4883031;29;20301;-67
2020/12/09 08:30:22;;;;;;;36.60;15.00;;;1.40;99.90;;;;;;4884243;29;20235;-67
2020/12/09 08:33:15;;;;;;;37.07;15.50;;;1.30;99.90;;;;;;4883179;29;20231;-67
2020/12/09 08:35:50;;;;;;;35.73;16.27;;;1.40;99.90;;;;;;4882001;29;20306;-68
2020/12/09 08:38:29;;;;;;;37.13;15.50;;;1.40;99.90;;;;;;4918818;29;20193;-66
2020/12/09 08:40:57;;;;;;;33.57;15.03;;;1.30;99.90;;;;;;4920790;29;20233;-67
2020/12/09 08:43:25;;;;;;;34.77;14.57;;;1.30;99.90;;;;;;4939133;28;20204;-68
2020/12/09 08:45:52;;;;;;;26.67;12.03;;;1.30;99.90;;;;;;4946250;28;20213;-66
2020/12/09 08:48:19;;;;;;;33.57;13.77;;;1.30;99.90;;;;;;4971958;28;20238;-66
2020/12/09 08:50:47;;;;;;;41.23;13.80;;;1.40;99.90;;;;;;5001127;28;20258;-67
2020/12/09 08:53:14;;;;;;;35.37;14.70;;;1.40;99.90;;;;;;5001439;28;20662;-67
2020/12/09 08:55:42;;;;;;;30.50;13.10;;;1.50;99.90;;;;;;5017656;28;20202;-67
2020/12/09 08:58:10;;;;;;;25.30;11.83;;;1.50;99.90;;;;;;5021936;28;20238;-67
2020/12/09 09:00:37;;;;;;;31.10;13.80;;;1.60;99.90;;;;;;5019985;28;20229;-67
2020/12/09 09:03:04;;;;;;;39.80;17.07;;;1.60;99.90;;;;;;5022335;28;20276;-67
2020/12/09 09:05:31;;;;;;;42.33;17.60;;;1.70;99.90;;;;;;5023388;28;20616;-67
2020/12/09 09:07:58;;;;;;;31.30;14.07;;;1.60;99.90;;;;;;5040665;28;20209;-67
2020/12/09 09:10:25;;;;;;;28.70;13.70;;;1.60;99.90;;;;;;5038826;28;20210;-66
2020/12/09 09:12:53;;;;;;;38.27;15.57;;;1.60;99.90;;;;;;5043418;28;20541;-67
2020/12/09 09:15:20;;;;;;;44.50;18.77;;;1.60;99.90;;;;;;5048530;28;20277;-66
2020/12/09 09:17:46;;;;;;;37.40;16.83;;;1.50;99.90;;;;;;5041590;28;20214;-67
2020/12/09 09:20:13;;;;;;;38.00;16.23;;;1.50;99.90;;;;;;5047824;28;20757;-67
2020/12/09 09:22:40;;;;;;;41.70;18.10;;;1.50;99.90;;;;;;5010905;28;20206;-67
2020/12/09 09:25:06;;;;;;;39.10;16.87;;;1.50;99.90;;;;;;5004548;28;20230;-67
2020/12/09 09:27:33;;;;;;;34.37;15.20;;;1.50;99.90;;;;;;4990463;28;20271;-67
2020/12/09 09:30:00;;;;;;;40.27;16.50;;;1.60;99.90;;;;;;4988736;28;20216;-67
2020/12/09 09:32:27;;;;;;;40.37;15.87;;;1.60;99.90;;;;;;4992882;28;20298;-67
2020/12/09 09:34:54;;;;;;;45.00;18.40;;;1.60;99.90;;;;;;4986271;28;20263;-67
2020/12/09 09:37:22;;;;;;;42.00;17.50;;;1.50;99.90;;;;;;4988320;28;20199;-66
2020/12/09 09:39:49;;;;;;;44.77;19.80;;;1.50;99.90;;;;;;4984321;28;20302;-67
2020/12/09 09:42:17;;;;;;;46.27;19.10;;;1.40;99.90;;;;;;4986624;28;20216;-66
2020/12/09 09:44:44;;;;;;;45.03;18.37;;;1.40;99.90;;;;;;4986268;28;20247;-67
2020/12/09 09:47:12;;;;;;;41.90;17.40;;;1.30;99.90;;;;;;5022308;28;20233;-67
2020/12/09 09:49:39;;;;;;;37.90;16.57;;;1.40;99.90;;;;;;5007584;28;20215;-67
2020/12/09 09:52:06;;;;;;;44.10;17.60;;;1.40;99.90;;;;;;5000777;28;20695;-67
2020/12/09 09:54:32;;;;;;;42.10;16.90;;;1.40;99.90;;;;;;5003252;28;20270;-67
2020/12/09 09:56:59;;;;;;;40.17;16.73;;;1.30;99.90;;;;;;5004861;28;20212;-67
2020/12/09 09:59:27;;;;;;;48.73;19.67;;;1.30;99.90;;;;;;5005757;28;20227;-67
2020/12/09 10:01:53;;;;;;;51.00;20.37;;;1.40;99.90;;;;;;4981209;28;20338;-67
2020/12/09 10:04:21;;;;;;;57.67;22.03;;;1.30;99.90;;;;;;4986547;28;20281;-67
2020/12/09 10:06:50;;;;;;;44.77;19.90;;;1.40;99.90;;;;;;4982506;28;20690;-67
2020/12/09 10:09:17;;;;;;;32.27;16.13;;;1.40;99.90;;;;;;4981863;28;20210;-67
2020/12/09 10:11:44;;;;;;;41.37;18.27;;;1.30;99.90;;;;;;4983694;28;20545;-67
2020/12/09 10:14:11;;;;;;;42.07;17.57;;;1.40;99.90;;;;;;5000698;28;20230;-67
2020/12/09 10:16:43;;;;;;;37.47;15.47;;;1.40;99.90;;;;;;5024684;28;20202;-67
2020/12/09 10:19:10;;;;;;;43.87;18.07;;;1.40;99.90;;;;;;5023697;28;20264;-67
2020/12/09 10:21:38;;;;;;;37.23;16.73;;;1.30;99.90;;;;;;5024581;28;20635;-67
2020/12/09 10:24:08;;;;;;;36.47;16.63;;;1.30;99.90;;;;;;5023212;28;20297;-67
2020/12/09 10:26:36;;;;;;;41.83;17.20;;;0.40;99.90;;;;;;5025405;28;20259;-67
2020/12/09 10:29:07;;;;;;;39.87;16.97;;;1.30;99.90;;;;;;5022988;28;20207;-67
2020/12/09 10:31:37;;;;;;;39.63;17.50;;;1.30;99.90;;;;;;5024278;28;20194;-67
2020/12/09 10:34:11;;;;;;;39.83;17.67;;;0.60;99.90;;;;;;5022192;28;20210;-67
2020/12/09 10:36:43;;;;;;;42.60;18.87;;;1.20;99.90;;;;;;5030535;28;20217;-67
2020/12/09 10:39:10;;;;;;;44.50;17.23;;;1.20;99.90;;;;;;5018265;28;20206;-67
2020/12/09 10:41:43;;;;;;;44.37;18.17;;;1.30;99.90;;;;;;4992282;28;20598;-67
2020/12/09 10:44:14;;;;;;;39.17;18.98;;;1.20;99.90;;;;;;4992877;28;20440;-67
2020/12/09 10:46:41;;;;;;;39.93;17.77;;;1.10;99.90;;;;;;5012231;28;20251;-67
2020/12/09 10:49:10;;;;;;;41.17;18.47;;;1.20;99.90;;;;;;5013488;28;20195;-66
2020/12/09 10:51:44;;;;;;;37.73;18.23;;;1.20;99.90;;;;;;5003612;28;20361;-67
2020/12/09 10:54:11;;;;;;;50.13;21.07;;;1.20;99.90;;;;;;4988331;28;20555;-67
2020/12/09 10:56:38;;;;;;;47.73;19.90;;;1.20;99.90;;;;;;4974919;28;20208;-66
2020/12/09 10:59:05;;;;;;;48.90;19.17;;;1.10;99.90;;;;;;4974798;28;20291;-67
2020/12/09 11:01:32;;;;;;;40.97;17.97;;;1.10;99.90;;;;;;4961717;28;20220;-67
2020/12/09 11:04:00;;;;;;;45.10;18.33;;;1.00;99.90;;;;;;4966669;28;20203;-67
2020/12/09 11:06:28;;;;;;;37.50;17.43;;;1.00;99.90;;;;;;4966948;28;20734;-67
2020/12/09 11:08:56;;;;;;;49.20;19.00;;;0.90;99.90;;;;;;4972881;28;20630;-68
2020/12/09 11:11:22;;;;;;;49.73;19.67;;;0.90;99.90;;;;;;4960904;28;20197;-66
2020/12/09 11:13:49;;;;;;;48.97;18.40;;;1.00;99.90;;;;;;4968593;28;20227;-66
2020/12/09 11:16:16;;;;;;;48.93;18.77;;;1.00;99.90;;;;;;4970821;28;20782;-67
2020/12/09 11:18:45;;;;;;;42.33;18.63;;;1.10;99.90;;;;;;5006630;28;20597;-68
2020/12/09 11:21:17;;;;;;;44.23;20.33;;;1.10;99.90;;;;;;5003859;28;20570;-67
2020/12/09 11:23:43;;;;;;;47.60;19.10;;;1.00;99.90;;;;;;5005628;28;20206;-67
2020/12/09 11:26:11;;;;;;;51.77;20.23;;;1.00;99.90;;;;;;4944914;28;20197;-67
2020/12/09 11:28:38;;;;;;;45.60;18.87;;;0.90;99.90;;;;;;4982501;28;20207;-67
2020/12/09 11:31:04;;;;;;;43.17;18.93;;;0.90;99.90;;;;;;4982718;28;20203;-67
2020/12/09 11:33:31;;;;;;;48.03;20.13;;;1.00;99.90;;;;;;4985420;28;20203;-66
2020/12/09 11:36:00;;;;;;;44.97;19.27;;;0.90;99.90;;;;;;4982918;28;20223;-66
2020/12/09 11:38:31;;;;;;;38.37;15.67;;;0.90;99.90;;;;;;4982866;28;20196;-67
2020/12/09 11:40:58;;;;;;;41.83;18.07;;;1.00;99.90;;;;;;4983623;28;20315;-66
2020/12/09 11:43:27;;;;;;;43.47;18.17;;;1.00;99.90;;;;;;4962385;28;20657;-67
2020/12/09 11:45:54;;;;;;;43.77;18.83;;;1.00;99.90;;;;;;4964076;28;20766;-67
2020/12/09 11:48:21;;;;;;;55.20;20.37;;;1.00;99.90;;;;;;4980955;28;20295;-66
2020/12/09 11:50:48;;;;;;;46.87;19.13;;;1.00;99.90;;;;;;4961885;28;20618;-67
2020/12/09 11:53:15;;;;;;;47.37;19.27;;;0.90;99.90;;;;;;4961255;28;20302;-67
2020/12/09 11:55:42;;;;;;;44.37;19.43;;;0.90;99.90;;;;;;4962745;28;20626;-66
2020/12/09 11:58:08;;;;;;;43.53;17.50;;;0.90;99.90;;;;;;4980713;28;20230;-66
2020/12/09 12:00:37;;;;;;;47.83;18.80;;;0.90;99.90;;;;;;4982195;28;20561;-67
2020/12/09 12:03:03;;;;;;;40.00;16.57;;;0.90;99.90;;;;;;4981632;28;20219;-67
2020/12/09 12:05:34;;;;;;;43.20;18.37;;;0.90;99.90;;;;;;4982378;28;20203;-66
2020/12/09 12:08:04;;;;;;;49.15;19.85;;;1.00;99.90;;;;;;4963223;28;20456;-67
2020/12/09 12:10:31;;;;;;;46.60;20.27;;;0.90;99.90;;;;;;4912406;29;20729;-66
2020/12/09 12:12:58;;;;;;;38.17;17.53;;;0.90;99.90;;;;;;4907722;29;20696;-66
2020/12/09 12:15:25;;;;;;;42.20;17.93;;;1.00;99.90;;;;;;4937667;29;20241;-67
2020/12/09 12:17:52;;;;;;;43.10;19.13;;;1.00;99.90;;;;;;4936180;29;20209;-68
2020/12/09 12:20:19;;;;;;;45.70;18.67;;;1.00;99.90;;;;;;4957013;28;20243;-67
2020/12/09 12:22:46;;;;;;;46.33;18.83;;;1.00;99.90;;;;;;4974415;28;20209;-67
2020/12/09 12:25:12;;;;;;;45.70;18.93;;;1.00;99.90;;;;;;4971391;28;20240;-66
2020/12/09 12:27:39;;;;;;;45.70;19.10;;;1.00;99.90;;;;;;4941756;28;20231;-66
2020/12/09 12:30:09;;;;;;;52.33;20.23;;;1.00;99.90;;;;;;4935728;28;20236;-65
2020/12/09 12:32:35;;;;;;;54.22;24.23;;;1.10;99.90;;;;;;4952402;28;20513;-66
2020/12/09 12:35:07;;;;;;;46.20;20.27;;;1.00;99.90;;;;;;4963099;28;20780;-66
2020/12/09 12:37:34;;;;;;;50.63;20.17;;;1.00;99.90;;;;;;4943471;29;20208;-65
2020/12/09 12:40:04;;;;;;;41.93;18.83;;;1.10;99.90;;;;;;4923696;29;20228;-66
2020/12/09 12:42:36;;;;;;;45.63;19.17;;;1.10;99.90;;;;;;4976673;28;20211;-66